Aérodrome :
LOGIN :

S'inscrire | Disclaimer

   EN    FR    IT 

 










Légende :    VFR   VFR Marginal   IFR   IFR Intensif   IFR Très Intensif
Visi : 
Plafond : 
>= 8 km
>= 3000ft
5 à 8 km
1000 à 3000 ft
1500m à 5 km
500 à 1000 ft
800 à 1500m
200 à 500 ft
< 800m
< 200 ft
Symboles :   Orages  Brouillard  Fortes neiges  Fortes précipitations  Vent > 20 kt
SIGMETs :   Divers  Orages  Givrage  Turbulence  Onde Orograph.  Cendres Volcan.






- Altitude de l'aérodrome : 53 ft
- Code IATA : HAM


EDDH - Hamburg

DERNIER METAR :
  • 100420Z 06003KT 8000 NSC 19/18 Q1018 NOSIG

METARs EXPIRÉS :
  • 100350Z VRB02KT CAVOK 18/17 Q1018 NOSIG
  • 100320Z VRB02KT CAVOK 19/17 Q1018 NOSIG
  • 100250Z 06003KT 030V090 CAVOK 20/18 Q1018 NOSIG
  • 100220Z VRB03KT CAVOK 19/17 Q1018 NOSIG
  • 100150Z 04003KT 020V080 CAVOK 19/17 Q1018 NOSIG

TAF TAF EDDH
Valide du 10 à 00h jusqu'au 11 à 06h UTC


092300Z 1000/1106 06009KT CAVOK
PROB30
TEMPO 1012/1019 10015G35KT TSRA SCT050CB
BECMG 1018/1020 06004KT



MET'MAP, la Météo Aéronautique d'un coup d'oeil ! - Copyright ORBIFLY Décembre 2007 - Disclaimer

ORBIFLY MET'MAP TEAM :

Programmation & Développement : Alexandra Zaïnal
Sur une idée originale de : Baudouin d'Aumeries
Assistance à la programmation : Marc-Olivier Méhu
Soutien technique & logistique : Manuel Goepfert

Contact : metmap@orbifly.com




SOURCES & CREDITS :

   NOAA